Time;durP1;ratioP1;P1;durP2;ratioP2;P2;SDS_P1;SDS_P2;PMS_P1;PMS_P2;Temp;Humidity;BMP_temperature;BMP_pressure;BME280_temperature;BME280_humidity;BME280_pressure;Samples;Min_cycle;Max_cycle;Signal;HPM_P1;HPM_P2
2021/12/16 00:02:34;;;;;;;0.50;0.50;;;;;;;7.94;100.00;102040.84;5013525;28;20484;-47
2021/12/16 00:07:54;;;;;;;0.30;0.20;;;;;;;7.97;100.00;102035.59;5009379;28;20499;-48
2021/12/16 00:10:37;;;;;;;0.40;0.40;;;;;;;7.94;100.00;102031.16;5013512;28;20449;-48
2021/12/16 00:33:11;;;;;;;0.30;0.10;;;;;;;7.95;100.00;102037.34;5001420;28;20495;-48
2021/12/16 00:35:07;;;;;;;0.63;0.63;;;;;;;7.85;100.00;102032.81;5014838;28;20452;-48
2021/12/16 00:37:34;;;;;;;0.30;0.20;;;;;;;7.89;100.00;102042.56;5004359;28;20461;-48
2021/12/16 00:40:03;;;;;;;0.30;0.20;;;;;;;7.86;100.00;102043.44;5008090;28;20476;-47
2021/12/16 00:47:54;;;;;;;0.30;0.20;;;;;;;7.62;100.00;102045.78;5012869;28;20496;-48
2021/12/16 00:50:23;;;;;;;0.30;0.20;;;;;;;7.77;100.00;102037.13;4993104;28;20477;-48
2021/12/16 00:55:51;;;;;;;0.30;0.20;;;;;;;7.79;100.00;102041.56;5002271;28;20449;-48
2021/12/16 00:58:23;;;;;;;0.30;0.20;;;;;;;7.78;100.00;102037.16;5012216;28;20501;-48
2021/12/16 01:01:01;;;;;;;0.30;0.20;;;;;;;7.80;100.00;102045.09;5012734;28;20476;-48
2021/12/16 01:34:53;;;;;;;0.20;0.20;;;;;;;7.66;100.00;102072.31;5012369;28;20448;-50
2021/12/16 01:50:37;;;;;;;0.30;0.20;;;;;;;7.64;100.00;102070.50;5012311;28;20492;-50
2021/12/16 01:55:45;;;;;;;0.30;0.17;;;;;;;7.62;100.00;102070.50;5005678;28;20457;-50
2021/12/16 01:58:18;;;;;;;0.30;0.20;;;;;;;7.52;100.00;102073.00;5014810;28;20476;-50
2021/12/16 02:01:14;;;;;;;0.30;0.20;;;;;;;7.56;100.00;102078.38;5015919;28;20452;-50
2021/12/16 02:03:52;;;;;;;1.60;1.50;;;;;;;7.53;100.00;102066.84;5015627;28;20955;-50
2021/12/16 02:09:17;;;;;;;0.30;0.20;;;;;;;7.58;100.00;102066.03;5015403;28;20487;-50
2021/12/16 02:11:57;;;;;;;0.30;0.20;;;;;;;7.56;100.00;102070.44;5015701;28;20510;-50
2021/12/16 02:38:56;;;;;;;0.30;0.20;;;;;;;7.76;100.00;102049.50;5001315;28;20472;-50
2021/12/16 02:41:23;;;;;;;0.30;0.30;;;;;;;7.77;100.00;102043.31;5014753;28;20941;-50
2021/12/16 02:49:23;;;;;;;0.27;0.20;;;;;;;7.86;100.00;102043.44;5008462;28;20899;-49
2021/12/16 02:51:51;;;;;;;0.30;0.20;;;;;;;7.90;100.00;102050.53;5006513;28;20507;-49
2021/12/16 02:54:18;;;;;;;0.30;0.20;;;;;;;8.36;100.00;102051.03;5007660;28;20571;-48
2021/12/16 02:56:45;;;;;;;0.30;0.20;;;;;;;8.02;100.00;102050.66;5001557;28;20452;-49
2021/12/16 02:59:15;;;;;;;0.40;0.40;;;;;;;8.32;100.00;102059.78;5014647;28;20567;-48
2021/12/16 03:01:45;;;;;;;0.30;0.20;;;;;;;8.19;100.00;102060.53;4995263;28;20515;-48
2021/12/16 03:04:15;;;;;;;0.77;0.77;;;;;;;7.87;100.00;102054.91;5008261;28;20444;-48
2021/12/16 03:07:32;;;;;;;0.30;0.20;;;;;;;7.96;100.00;102055.91;5014419;28;20475;-49
2021/12/16 03:20:39;;;;;;;0.30;0.27;;;;;;;7.83;100.00;102064.59;5014449;28;20507;-49
2021/12/16 03:32:41;;;;;;;0.30;0.20;;;;;;;7.82;100.00;102049.56;5012234;28;20452;-49
2021/12/16 03:37:14;;;;;;;0.30;0.20;;;;;;;7.81;100.00;102068.97;5010974;28;20495;-49
2021/12/16 03:39:46;;;;;;;0.53;0.53;;;;;;;7.79;100.00;102065.41;5006956;28;20511;-48
2021/12/16 03:42:16;;;;;;;0.40;0.40;;;;;;;7.75;100.00;102060.94;5013800;28;21023;-49
2021/12/16 03:44:53;;;;;;;0.67;0.67;;;;;;;7.76;100.00;102059.19;5013914;28;20472;-49
2021/12/16 03:47:27;;;;;;;0.30;0.20;;;;;;;7.81;100.00;102061.03;5013810;28;20855;-48
2021/12/16 03:49:55;;;;;;;0.30;0.20;;;;;;;8.10;100.00;102069.28;5013596;28;20518;-48
2021/12/16 03:52:22;;;;;;;0.30;0.30;;;;;;;7.90;100.00;102061.13;5013541;28;20456;-48
2021/12/16 03:54:52;;;;;;;0.80;0.70;;;;;;;7.79;100.00;102057.47;5009532;28;20871;-48
2021/12/16 03:57:22;;;;;;;0.30;0.20;;;;;;;7.70;100.00;102062.66;5005250;28;21000;-49
2021/12/16 03:59:50;;;;;;;2.53;1.27;;;;;;;7.49;100.00;102062.38;5013485;28;20531;-48
2021/12/16 04:02:24;;;;;;;0.30;0.20;;;;;;;7.50;100.00;102064.16;5013475;28;20457;-49
2021/12/16 04:04:51;;;;;;;0.30;0.20;;;;;;;7.80;100.00;102077.75;4993949;28;20450;-49
2021/12/16 04:07:23;;;;;;;1.90;1.80;;;;;;;7.66;100.00;102069.66;5007037;28;20823;-49
2021/12/16 04:09:51;;;;;;;0.30;0.20;;;;;;;7.68;100.00;102069.72;5013675;28;20464;-49
2021/12/16 04:12:20;;;;;;;0.33;0.33;;;;;;;7.68;100.00;102075.88;5013326;28;20448;-49
2021/12/16 04:14:53;;;;;;;0.30;0.30;;;;;;;7.59;100.00;102062.53;5012663;28;20499;-49
2021/12/16 04:17:24;;;;;;;0.20;0.20;;;;;;;7.63;100.00;102068.75;5013071;28;20448;-49
2021/12/16 04:19:51;;;;;;;0.30;0.20;;;;;;;7.87;100.00;102071.69;5013088;28;20865;-49
2021/12/16 04:22:30;;;;;;;0.30;0.20;;;;;;;7.76;100.00;102070.66;5013111;28;20449;-49
2021/12/16 04:25:01;;;;;;;0.30;0.20;;;;;;;7.65;100.00;102085.53;5013266;28;20448;-49
2021/12/16 04:27:29;;;;;;;0.43;0.43;;;;;;;7.68;100.00;102081.19;4999613;28;20602;-50
2021/12/16 04:29:57;;;;;;;1.50;0.87;;;;;;;7.69;100.00;102087.34;5025353;28;20821;-49
2021/12/16 04:32:24;;;;;;;0.30;0.20;;;;;;;7.68;100.00;102085.59;5000485;28;20507;-49
2021/12/16 04:34:50;;;;;;;0.30;0.20;;;;;;;7.66;100.00;102082.00;5013198;28;20877;-49
2021/12/16 04:37:17;;;;;;;0.30;0.20;;;;;;;7.63;100.00;102084.63;5006780;28;20496;-49
2021/12/16 04:39:46;;;;;;;0.30;0.20;;;;;;;7.64;100.00;102081.09;5005835;28;20476;-49
2021/12/16 04:42:17;;;;;;;0.30;0.20;;;;;;;7.59;100.00;102086.34;5012722;28;20456;-49
2021/12/16 04:44:44;;;;;;;0.20;0.20;;;;;;;7.59;100.00;102098.69;5012736;28;20475;-49
2021/12/16 04:47:11;;;;;;;1.90;1.80;;;;;;;7.57;100.00;102088.09;5012790;28;20510;-49
2021/12/16 04:49:39;;;;;;;0.20;0.20;;;;;;;7.56;100.00;102091.59;5012584;28;20496;-49
2021/12/16 04:52:11;;;;;;;0.30;0.20;;;;;;;7.56;100.00;102094.25;5012832;28;20507;-49
2021/12/16 04:54:38;;;;;;;0.30;0.30;;;;;;;7.63;100.00;102092.56;5011026;28;20480;-49
2021/12/16 04:57:05;;;;;;;0.50;0.50;;;;;;;7.61;100.00;102095.19;5001370;28;20976;-49
2021/12/16 04:59:34;;;;;;;0.30;0.20;;;;;;;7.51;100.00;102100.34;5012587;28;20465;-49
2021/12/16 05:02:17;;;;;;;0.30;0.20;;;;;;;7.41;100.00;102097.59;5012545;28;20448;-48
2021/12/16 05:04:44;;;;;;;0.30;0.20;;;;;;;7.51;100.00;102097.69;5012558;28;20448;-49
2021/12/16 05:07:12;;;;;;;2.10;1.13;;;;;;;7.50;100.00;102102.09;5012471;28;20484;-49
2021/12/16 05:12:10;;;;;;;0.83;0.83;;;;;;;7.52;100.00;102107.41;5012555;28;20444;-49
2021/12/16 05:14:37;;;;;;;0.30;0.20;;;;;;;7.53;100.00;102110.06;5012498;28;20869;-49
2021/12/16 05:17:21;;;;;;;0.30;0.20;;;;;;;7.52;100.00;102110.03;5012354;28;20949;-49
2021/12/16 05:19:51;;;;;;;0.30;0.20;;;;;;;7.53;100.00;102117.13;4992695;28;20496;-49
2021/12/16 05:25:10;;;;;;;0.23;0.17;;;;;;;7.55;100.00;102116.28;5012472;28;20450;-50
2021/12/16 05:27:37;;;;;;;0.30;0.20;;;;;;;7.63;100.00;102119.03;5015715;28;20864;-49
2021/12/16 05:30:04;;;;;;;0.30;0.20;;;;;;;7.57;100.00;102125.13;5028996;28;20471;-50
2021/12/16 05:32:30;;;;;;;0.30;0.20;;;;;;;7.58;100.00;102126.03;5003894;28;20507;-49
2021/12/16 05:34:57;;;;;;;0.30;0.20;;;;;;;7.58;100.00;102126.91;5016283;28;20448;-49
2021/12/16 05:37:24;;;;;;;0.40;0.40;;;;;;;7.58;100.00;102132.22;5009046;28;20544;-49
2021/12/16 05:39:50;;;;;;;0.30;0.20;;;;;;;7.57;100.00;102124.25;5008994;28;20572;-49
2021/12/16 05:42:17;;;;;;;0.57;0.57;;;;;;;7.58;100.00;102129.56;5016150;28;20456;-49
2021/12/16 05:44:44;;;;;;;2.10;2.00;;;;;;;7.57;100.00;102129.53;5015874;28;20452;-49
2021/12/16 05:47:10;;;;;;;0.40;0.40;;;;;;;7.52;100.00;102139.16;5016107;28;20452;-49
2021/12/16 05:49:37;;;;;;;0.20;0.10;;;;;;;7.55;100.00;102144.50;5015923;28;21019;-49
2021/12/16 05:52:04;;;;;;;1.27;1.03;;;;;;;7.58;100.00;102137.50;5016034;28;20460;-49
2021/12/16 05:54:31;;;;;;;0.30;0.20;;;;;;;7.52;100.00;102141.81;5014114;28;21002;-48
2021/12/16 05:56:57;;;;;;;0.30;0.20;;;;;;;7.51;100.00;102132.09;5004513;28;20452;-49
2021/12/16 05:59:24;;;;;;;1.03;1.03;;;;;;;7.50;100.00;102127.66;5015403;28;20464;-49
2021/12/16 06:01:51;;;;;;;0.20;0.10;;;;;;;7.45;100.00;102130.25;5015857;28;20452;-48
2021/12/16 06:04:19;;;;;;;0.30;0.20;;;;;;;7.52;100.00;102131.22;5015625;28;20501;-49
2021/12/16 06:06:46;;;;;;;0.30;0.20;;;;;;;7.56;100.00;102130.41;5015553;28;20510;-49
2021/12/16 06:09:12;;;;;;;14.87;1.87;;;;;;;7.54;100.00;102130.41;5015380;28;20500;-49
2021/12/16 06:11:42;;;;;;;0.30;0.20;;;;;;;7.53;100.00;102128.59;5015489;28;20507;-49
2021/12/16 06:22:47;;;;;;;0.30;0.20;;;;;;;7.50;100.00;102143.53;5015300;28;20826;-48
2021/12/16 06:28:04;;;;;;;0.30;0.20;;;;;;;7.43;100.00;102147.88;5005623;28;20524;-48
2021/12/16 06:30:35;;;;;;;0.30;0.17;;;;;;;7.50;100.00;102154.13;5024144;28;20476;-48
2021/12/16 06:33:05;;;;;;;3.20;0.80;;;;;;;7.51;100.00;102155.91;5007381;28;20503;-49
2021/12/16 06:35:32;;;;;;;0.30;0.20;;;;;;;7.58;100.00;102161.31;5015147;28;20514;-49
2021/12/16 06:37:58;;;;;;;0.30;0.20;;;;;;;7.57;100.00;102148.94;5002668;28;20528;-52
2021/12/16 06:40:25;;;;;;;0.67;0.67;;;;;;;7.56;100.00;102149.81;5014257;28;20453;-49
2021/12/16 06:42:55;;;;;;;0.30;0.20;;;;;;;7.60;100.00;102163.97;5015298;28;21004;-49
2021/12/16 06:45:30;;;;;;;0.30;0.20;;;;;;;7.52;100.00;102163.84;5015088;28;20440;-48
2021/12/16 06:48:02;;;;;;;0.30;0.20;;;;;;;7.58;100.00;102160.44;5014777;28;20845;-48
2021/12/16 06:53:06;;;;;;;0.30;0.20;;;;;;;7.48;100.00;102169.09;5015117;28;20503;-49
2021/12/16 06:55:49;;;;;;;0.30;0.20;;;;;;;7.49;100.00;102169.09;5005612;28;20881;-48
2021/12/16 07:01:27;;;;;;;0.90;0.90;;;;;;;7.31;100.00;102176.78;5014962;28;20468;-49
2021/12/16 07:03:53;;;;;;;0.30;0.20;;;;;;;7.35;100.00;102176.84;5014804;28;20511;-48
2021/12/16 07:06:27;;;;;;;0.30;0.20;;;;;;;7.45;100.00;102187.56;5014777;28;20976;-47
2021/12/16 07:08:58;;;;;;;0.30;0.20;;;;;;;7.43;100.00;102190.19;5014867;28;20546;-48
2021/12/16 07:11:26;;;;;;;0.30;0.20;;;;;;;7.47;100.00;102192.00;5014756;28;20452;-49
2021/12/16 07:14:01;;;;;;;0.20;0.20;;;;;;;7.73;100.00;102192.38;5014718;28;20949;-49
2021/12/16 07:16:29;;;;;;;0.30;0.20;;;;;;;7.74;100.00;102191.53;5014449;28;20448;-49
2021/12/16 07:18:57;;;;;;;1.17;1.17;;;;;;;7.70;100.00;102195.00;5014821;28;20489;-51
2021/12/16 07:21:24;;;;;;;0.30;0.20;;;;;;;7.60;100.00;102198.38;5013227;28;20536;-50
2021/12/16 07:23:51;;;;;;;0.30;0.20;;;;;;;7.52;100.00;102197.38;5013100;28;20452;-50
2021/12/16 07:26:18;;;;;;;0.30;0.20;;;;;;;7.56;100.00;102191.28;5005584;28;20457;-50
2021/12/16 07:28:45;;;;;;;0.20;0.20;;;;;;;7.53;100.00;102201.78;5013586;28;20565;-50
2021/12/16 07:31:12;;;;;;;0.30;0.20;;;;;;;7.52;100.00;102206.19;5013466;28;20450;-50
2021/12/16 07:33:39;;;;;;;0.30;0.20;;;;;;;7.65;100.00;102212.56;5009467;28;20456;-50
2021/12/16 07:36:06;;;;;;;1.40;1.40;;;;;;;7.79;100.00;102223.34;5013128;28;20449;-51
2021/12/16 07:38:32;;;;;;;0.30;0.20;;;;;;;7.61;100.00;102216.03;5001037;28;20476;-51
2021/12/16 07:40:59;;;;;;;0.30;0.20;;;;;;;7.56;100.00;102228.31;5014254;28;20453;-50
2021/12/16 07:46:11;;;;;;;0.30;0.30;;;;;;;7.60;100.00;102227.50;5014106;28;20495;-50
2021/12/16 07:48:38;;;;;;;0.20;0.20;;;;;;;7.62;100.00;102228.41;5013746;28;20502;-50
2021/12/16 07:51:07;;;;;;;0.30;0.20;;;;;;;7.87;100.00;102227.00;5012859;28;20514;-50
2021/12/16 07:53:35;;;;;;;0.30;0.20;;;;;;;7.82;100.00;102232.25;4994236;28;20453;-50
2021/12/16 07:56:03;;;;;;;1.13;1.03;;;;;;;7.65;100.00;102234.63;4995948;28;20457;-50
2021/12/16 07:58:30;;;;;;;0.30;0.20;;;;;;;7.65;100.00;102241.66;5013887;28;21100;-50
2021/12/16 08:01:00;;;;;;;0.30;0.20;;;;;;;7.46;100.00;102240.50;5013761;28;20494;-51
2021/12/16 08:03:34;;;;;;;0.30;0.20;;;;;;;7.53;100.00;102241.47;5013863;28;20469;-51
2021/12/16 08:06:05;;;;;;;0.30;0.20;;;;;;;7.57;100.00;102238.03;5013527;28;20503;-49
2021/12/16 08:08:32;;;;;;;0.30;0.20;;;;;;;7.65;100.00;102252.25;5013245;28;20555;-49
2021/12/16 08:11:00;;;;;;;0.30;0.20;;;;;;;7.64;100.00;102247.81;5013443;28;20515;-49
2021/12/16 08:13:26;;;;;;;0.30;0.20;;;;;;;7.67;100.00;102253.16;5013315;28;20924;-49
2021/12/16 08:15:53;;;;;;;0.30;0.20;;;;;;;7.71;100.00;102245.31;5013357;28;20802;-49
2021/12/16 08:18:20;;;;;;;0.30;0.20;;;;;;;7.66;100.00;102246.09;5012968;28;21153;-49
2021/12/16 08:20:47;;;;;;;0.30;0.20;;;;;;;7.77;100.00;102252.44;5013329;28;20499;-51
2021/12/16 08:23:13;;;;;;;0.30;0.20;;;;;;;7.81;100.00;102262.22;5013733;28;20814;-49
2021/12/16 08:25:40;;;;;;;0.53;0.53;;;;;;;7.70;100.00;102262.06;5009155;28;20943;-50
2021/12/16 08:28:08;;;;;;;0.30;0.20;;;;;;;7.74;100.00;102263.00;5004243;28;20527;-50
2021/12/16 08:30:38;;;;;;;0.20;0.20;;;;;;;7.77;100.00;102273.63;5021742;28;20528;-50
2021/12/16 08:33:09;;;;;;;0.30;0.20;;;;;;;7.75;100.00;102263.88;4993698;28;20445;-49
2021/12/16 08:35:40;;;;;;;0.30;0.20;;;;;;;7.87;100.00;102269.34;5012313;28;20495;-50
2021/12/16 08:38:11;;;;;;;0.30;0.20;;;;;;;7.82;100.00;102273.72;4999935;28;20997;-49
2021/12/16 08:40:40;;;;;;;0.30;0.20;;;;;;;7.87;100.00;102274.66;4993442;28;20504;-49
2021/12/16 08:43:08;;;;;;;0.30;0.20;;;;;;;7.93;100.00;102278.25;5007576;28;20487;-50
2021/12/16 08:45:36;;;;;;;0.30;0.20;;;;;;;8.51;100.00;102294.09;5013001;28;20515;-50
2021/12/16 08:48:05;;;;;;;1.97;1.87;;;;;;;8.46;100.00;102293.13;5011643;28;20954;-49
2021/12/16 08:50:37;;;;;;;0.30;0.20;;;;;;;8.20;100.00;102283.03;5007908;28;21013;-49
2021/12/16 08:53:06;;;;;;;0.20;0.20;;;;;;;8.30;100.00;102292.00;4999610;28;20957;-48
2021/12/16 08:55:35;;;;;;;0.30;0.20;;;;;;;8.33;100.00;102297.34;5013196;28;20500;-49
2021/12/16 08:58:03;;;;;;;0.50;0.50;;;;;;;8.45;100.00;102300.19;5012764;28;20530;-49
2021/12/16 09:00:35;;;;;;;0.30;0.30;;;;;;;8.37;100.00;102296.56;5012774;28;20453;-48
2021/12/16 09:03:03;;;;;;;0.30;0.20;;;;;;;8.27;100.00;102287.56;5013071;28;20507;-51
2021/12/16 09:05:30;;;;;;;0.30;0.20;;;;;;;8.41;100.00;102301.03;5013089;28;20453;-47
2021/12/16 09:07:56;;;;;;;1.70;0.90;;;;;;;8.60;100.00;102305.69;5012539;28;20865;-47
2021/12/16 09:10:31;;;;;;;0.30;0.20;;;;;;;8.44;100.00;102306.38;5012712;28;20495;-50
2021/12/16 09:13:03;;;;;;;0.30;0.20;;;;;;;8.46;100.00;102306.38;5012882;28;20471;-50
2021/12/16 09:15:38;;;;;;;0.30;0.20;;;;;;;8.63;100.00;102309.22;5012804;28;20540;-47
2021/12/16 09:18:05;;;;;;;0.30;0.20;;;;;;;8.65;100.00;102307.53;5012683;28;20526;-50
2021/12/16 09:20:33;;;;;;;0.30;0.20;;;;;;;8.68;100.00;102315.50;4999815;28;20529;-47
2021/12/16 09:23:01;;;;;;;0.30;0.20;;;;;;;8.86;100.00;102318.34;5012540;28;20880;-48
2021/12/16 09:25:28;;;;;;;1.40;0.47;;;;;;;8.62;100.00;102318.94;5012418;28;20448;-48
2021/12/16 09:27:54;;;;;;;1.50;1.50;;;;;;;8.76;100.00;102319.09;5012433;28;20453;-47
2021/12/16 09:30:24;;;;;;;0.40;0.40;;;;;;;8.80;100.00;102319.19;5023079;28;20608;-49
2021/12/16 09:32:57;;;;;;;0.30;0.20;;;;;;;8.97;100.00;102327.31;5002938;28;20448;-51
2021/12/16 09:35:28;;;;;;;0.30;0.20;;;;;;;8.86;100.00;102323.66;5012869;28;20459;-50
2021/12/16 09:37:55;;;;;;;0.30;0.20;;;;;;;8.92;100.00;102323.75;5001168;28;20903;-47
2021/12/16 09:40:25;;;;;;;0.40;0.37;;;;;;;8.98;100.00;102331.75;5010902;28;20449;-51
2021/12/16 09:42:53;;;;;;;1.13;1.03;;;;;;;8.91;100.00;102329.91;5012646;28;20472;-50
2021/12/16 09:45:21;;;;;;;0.30;0.20;;;;;;;9.04;100.00;102330.91;5012466;28;20873;-47
2021/12/16 09:47:51;;;;;;;1.63;1.07;;;;;;;9.06;100.00;102335.38;5012384;28;20539;-48
2021/12/16 09:50:22;;;;;;;0.30;0.20;;;;;;;9.09;100.00;102338.06;5005186;28;20532;-48
2021/12/16 09:52:50;;;;;;;0.30;0.30;;;;;;;9.30;100.00;102339.13;5006402;28;20571;-47
2021/12/16 09:55:18;;;;;;;0.30;0.20;;;;;;;9.39;100.00;102341.91;5012750;28;20448;-47
2021/12/16 09:57:46;;;;;;;1.30;1.27;;;;;;;9.47;100.00;102334.91;5012545;28;20504;-47
2021/12/16 10:00:15;;;;;;;0.30;0.20;;;;;;;9.60;100.00;102350.06;5012414;28;20448;-47
2021/12/16 10:02:42;;;;;;;0.30;0.20;;;;;;;9.63;100.00;102346.53;5012217;28;20456;-47
2021/12/16 10:05:09;;;;;;;0.30;0.20;;;;;;;9.37;100.00;102346.31;5012018;28;20452;-47
2021/12/16 10:07:37;;;;;;;0.30;0.20;;;;;;;9.55;100.00;102346.47;5012550;28;20550;-47
2021/12/16 10:10:11;;;;;;;1.23;1.23;;;;;;;9.46;100.00;102352.59;5012102;28;20551;-47
2021/12/16 10:12:41;;;;;;;0.93;0.93;;;;;;;9.50;100.00;102356.16;5012193;28;20451;-47
2021/12/16 10:18:09;;;;;;;0.30;0.20;;;;;;;9.60;100.00;102357.13;5023351;28;20535;-47
2021/12/16 10:20:42;;;;;;;0.30;0.20;;;;;;;9.58;100.00;102353.56;5002096;28;20934;-47
2021/12/16 10:23:28;;;;;;;0.30;0.20;;;;;;;9.91;100.00;102359.16;5015472;28;20506;-47
2021/12/16 10:25:59;;;;;;;0.30;0.20;;;;;;;9.58;100.00;102358.88;5015179;28;20531;-47
2021/12/16 10:28:40;;;;;;;0.30;0.20;;;;;;;9.72;100.00;102355.44;5015499;28;20468;-47
2021/12/16 10:31:10;;;;;;;0.30;0.20;;;;;;;9.72;100.00;102355.44;5017181;28;20551;-46
2021/12/16 10:33:54;;;;;;;0.30;0.20;;;;;;;9.70;100.00;102353.66;5011317;28;20856;-47
2021/12/16 10:36:45;;;;;;;0.30;0.20;;;;;;;9.62;100.00;102358.03;5015080;28;20452;-47
2021/12/16 10:39:13;;;;;;;0.70;0.60;;;;;;;9.84;100.00;102357.31;5019455;28;20477;-47
2021/12/16 10:41:44;;;;;;;0.40;0.30;;;;;;;9.74;100.00;102353.72;5015276;28;20459;-47
2021/12/16 10:44:18;;;;;;;0.30;0.20;;;;;;;9.64;100.00;102351.84;5015061;28;20499;-48
2021/12/16 10:46:48;;;;;;;0.30;0.20;;;;;;;9.66;100.00;102349.22;5014746;28;20448;-47
2021/12/16 10:49:18;;;;;;;0.30;0.20;;;;;;;9.63;100.00;102350.09;5014982;28;20570;-47
2021/12/16 10:52:00;;;;;;;0.30;0.20;;;;;;;9.69;100.00;102354.53;5001789;28;20456;-47
2021/12/16 10:54:29;;;;;;;0.30;0.20;;;;;;;9.96;100.00;102341.47;5014887;28;20846;-47
2021/12/16 10:57:04;;;;;;;0.30;0.20;;;;;;;10.10;100.00;102342.47;5014876;28;20514;-48
2021/12/16 10:59:43;;;;;;;0.30;0.20;;;;;;;10.24;100.00;102336.38;5014561;28;20460;-47
2021/12/16 11:02:17;;;;;;;0.70;0.70;;;;;;;10.22;100.00;102339.03;5014596;28;20463;-47
2021/12/16 11:04:51;;;;;;;0.30;0.20;;;;;;;10.50;100.00;102334.75;5014791;28;20444;-47
2021/12/16 11:07:17;;;;;;;0.30;0.20;;;;;;;10.66;100.00;102319.72;5014665;28;20502;-48
2021/12/16 11:09:53;;;;;;;0.30;0.20;;;;;;;10.64;100.00;102327.72;5014171;28;20496;-48
2021/12/16 11:12:20;;;;;;;0.30;0.20;;;;;;;10.43;100.00;102326.75;5014513;28;20452;-47
2021/12/16 11:14:56;;;;;;;0.30;0.20;;;;;;;10.44;100.00;102328.53;5014382;28;20452;-47
2021/12/16 11:17:28;;;;;;;0.30;0.20;;;;;;;10.56;100.00;102315.28;5014381;28;20499;-48
2021/12/16 11:20:16;;;;;;;0.30;0.20;;;;;;;10.68;100.00;102310.88;5004500;28;20892;-48
2021/12/16 11:22:45;;;;;;;0.30;0.20;;;;;;;10.62;100.00;102312.63;5013854;28;20453;-47
2021/12/16 11:25:14;;;;;;;0.30;0.20;;;;;;;10.64;100.00;102306.44;5014170;28;20448;-48
2021/12/16 11:27:44;;;;;;;3.70;0.70;;;;;;;11.04;100.00;102313.66;5014397;28;20568;-48
2021/12/16 11:30:35;;;;;;;0.83;0.83;;;;;;;11.20;100.00;102318.09;5025816;28;20515;-47
2021/12/16 11:33:14;;;;;;;0.30;0.20;;;;;;;11.25;100.00;102311.03;5006136;28;20453;-47
2021/12/16 11:36:04;;;;;;;0.30;0.20;;;;;;;11.05;100.00;102321.63;4994841;28;20819;-47
2021/12/16 11:38:38;;;;;;;0.30;0.20;;;;;;;11.27;100.00;102315.47;4997783;28;20455;-47
2021/12/16 11:41:21;;;;;;;0.30;0.20;;;;;;;11.08;100.00;102320.75;5014180;28;20490;-48
2021/12/16 11:44:09;;;;;;;0.30;0.20;;;;;;;11.24;100.00;102318.13;4994727;28;20450;-49
2021/12/16 11:46:50;;;;;;;0.30;0.20;;;;;;;10.87;100.00;102316.28;5010175;28;20956;-48
2021/12/16 11:49:43;;;;;;;0.30;0.20;;;;;;;10.90;100.00;102316.28;5013708;28;20472;-48
2021/12/16 11:52:20;;;;;;;4.67;2.20;;;;;;;10.97;100.00;102318.09;4993898;28;20471;-51
2021/12/16 11:55:00;;;;;;;0.57;0.57;;;;;;;10.93;100.00;102313.63;5010594;28;20999;-52
2021/12/16 11:57:45;;;;;;;0.30;0.20;;;;;;;10.82;100.00;102313.56;5013699;28;20912;-52
2021/12/16 12:00:16;;;;;;;0.30;0.23;;;;;;;10.86;100.00;102306.50;5012671;28;20532;-52
2021/12/16 12:02:47;;;;;;;0.30;0.20;;;;;;;11.06;100.00;102311.88;5013368;28;20986;-52
2021/12/16 12:05:33;;;;;;;0.30;0.20;;;;;;;10.91;100.00;102313.63;5013605;28;20510;-52
2021/12/16 12:08:09;;;;;;;0.80;0.80;;;;;;;11.05;100.00;102308.31;5013352;28;20452;-52
2021/12/16 12:11:10;;;;;;;0.50;0.47;;;;;;;11.36;100.00;102306.56;5013458;28;20499;-51
2021/12/16 12:13:44;;;;;;;0.30;0.20;;;;;;;10.80;100.00;102317.13;5008547;28;20484;-52
2021/12/16 12:16:14;;;;;;;2.40;2.30;;;;;;;10.80;100.00;102314.47;5013381;28;20495;-52
2021/12/16 12:18:45;;;;;;;0.30;0.20;;;;;;;10.86;100.00;102307.41;5012969;28;20511;-52
2021/12/16 12:21:29;;;;;;;0.40;0.30;;;;;;;11.02;100.00;102302.13;5000939;28;20957;-52
2021/12/16 12:24:21;;;;;;;0.30;0.20;;;;;;;11.06;100.00;102309.22;5013233;28;20953;-52
2021/12/16 12:26:59;;;;;;;0.70;0.67;;;;;;;10.97;100.00;102308.31;5013030;28;20506;-52
2021/12/16 12:29:30;;;;;;;0.30;0.20;;;;;;;10.93;100.00;102310.94;5021517;28;20525;-52
2021/12/16 12:32:11;;;;;;;0.30;0.30;;;;;;;10.91;100.00;102305.63;5003970;28;20445;-52
2021/12/16 12:34:41;;;;;;;0.30;0.30;;;;;;;11.06;100.00;102303.88;5013005;28;20420;-52
2021/12/16 12:37:11;;;;;;;0.30;0.20;;;;;;;10.89;100.00;102306.50;5007078;28;20458;-52
2021/12/16 12:39:42;;;;;;;0.30;0.20;;;;;;;10.86;100.00;102301.19;5005785;28;20622;-51
2021/12/16 12:42:12;;;;;;;0.30;0.20;;;;;;;10.83;100.00;102307.41;5013097;28;20448;-51
2021/12/16 12:44:40;;;;;;;0.63;0.60;;;;;;;10.84;100.00;102303.84;5013019;28;20456;-52
2021/12/16 12:47:12;;;;;;;5.10;1.70;;;;;;;10.82;100.00;102296.72;4993406;28;20454;-52
2021/12/16 12:49:39;;;;;;;0.30;0.30;;;;;;;10.72;100.00;102302.94;4994109;28;20465;-52
2021/12/16 12:52:10;;;;;;;0.40;0.40;;;;;;;10.77;100.00;102303.81;5012777;28;20453;-52
2021/12/16 12:54:42;;;;;;;0.30;0.20;;;;;;;10.86;100.00;102301.19;5012755;28;20870;-51
2021/12/16 12:57:18;;;;;;;0.30;0.20;;;;;;;10.86;100.00;102303.84;5012999;28;21015;-52
2021/12/16 12:59:45;;;;;;;1.17;1.17;;;;;;;10.92;100.00;102301.19;5012664;28;20468;-52
2021/12/16 13:02:26;;;;;;;0.30;0.20;;;;;;;10.89;100.00;102286.13;5012562;28;20518;-51
2021/12/16 13:05:33;;;;;;;0.30;0.20;;;;;;;10.87;100.00;102295.00;5012669;28;20977;-52
2021/12/16 13:08:06;;;;;;;0.30;0.20;;;;;;;10.92;100.00;102291.44;4990763;28;20457;-52
2021/12/16 13:10:43;;;;;;;0.30;0.20;;;;;;;10.82;100.00;102300.28;5009248;28;20515;-51
2021/12/16 13:16:15;;;;;;;0.30;0.30;;;;;;;10.93;100.00;102295.88;5012455;28;20472;-51
2021/12/16 13:27:41;;;;;;;0.43;0.40;;;;;;;10.94;100.00;102296.75;5001322;28;20506;-50
2021/12/16 13:32:48;;;;;;;0.40;0.33;;;;;;;10.97;100.00;102297.69;5001015;28;20992;-50
2021/12/16 13:35:34;;;;;;;0.30;0.20;;;;;;;10.93;100.00;102295.88;5012223;28;20546;-51
2021/12/16 13:38:07;;;;;;;0.30;0.20;;;;;;;10.92;100.00;102298.53;5000249;28;20954;-50
2021/12/16 13:40:41;;;;;;;3.00;1.40;;;;;;;10.96;100.00;102293.25;5012058;28;20447;-51
2021/12/16 13:43:29;;;;;;;0.30;0.20;;;;;;;10.92;100.00;102294.09;5012186;28;20476;-51
2021/12/16 13:46:27;;;;;;;1.13;1.13;;;;;;;10.87;100.00;102293.22;5012556;28;20449;-51
2021/12/16 14:02:57;;;;;;;0.30;0.20;;;;;;;10.82;100.00;102297.63;5011358;28;20478;-50
2021/12/16 14:05:53;;;;;;;0.30;0.20;;;;;;;10.84;100.00;102308.28;5016151;28;20483;-51
2021/12/16 14:08:35;;;;;;;0.30;0.20;;;;;;;10.83;100.00;102307.41;4996357;28;20465;-50
2021/12/16 14:18:00;;;;;;;0.30;0.20;;;;;;;10.81;100.00;102301.16;5031932;28;20458;-51
2021/12/16 14:23:56;;;;;;;0.30;0.20;;;;;;;10.85;100.00;102315.38;5015195;28;20502;-51
2021/12/16 14:38:12;;;;;;;0.30;0.20;;;;;;;10.86;100.00;102327.81;5008316;28;20878;-51
2021/12/16 14:46:27;;;;;;;0.30;0.20;;;;;;;10.69;100.00;102333.06;5018658;28;20460;-50
2021/12/16 14:48:55;;;;;;;0.30;0.20;;;;;;;10.66;100.00;102323.28;5013359;28;20520;-50
2021/12/16 14:51:21;;;;;;;0.40;0.40;;;;;;;10.79;100.00;102324.22;4999670;28;20505;-50
2021/12/16 14:53:53;;;;;;;0.30;0.20;;;;;;;10.74;100.00;102331.31;5004046;28;21003;-50
2021/12/16 14:56:36;;;;;;;0.30;0.20;;;;;;;10.68;100.00;102321.50;5015275;28;20477;-52
2021/12/16 14:59:07;;;;;;;0.30;0.20;;;;;;;10.58;100.00;102325.03;5014101;28;20443;-52
2021/12/16 15:01:45;;;;;;;0.30;0.20;;;;;;;10.60;100.00;102314.41;5015079;28;20531;-52
2021/12/16 15:04:16;;;;;;;0.30;0.20;;;;;;;10.63;100.00;102325.94;5014567;28;20453;-51
2021/12/16 15:06:53;;;;;;;0.60;0.50;;;;;;;10.63;100.00;102314.41;5014494;28;21002;-51
2021/12/16 15:09:26;;;;;;;0.30;0.20;;;;;;;10.62;100.00;102321.50;5014212;28;20888;-52
2021/12/16 15:12:16;;;;;;;0.63;0.63;;;;;;;10.61;100.00;102325.03;5014380;28;20488;-52
2021/12/16 15:43:00;;;;;;;0.30;0.20;;;;;;;10.42;100.00;102330.28;5013840;28;20503;-49
2021/12/16 15:45:32;;;;;;;1.13;0.87;;;;;;;10.38;100.00;102332.91;4994495;28;20424;-48
2021/12/16 15:48:19;;;;;;;0.30;0.20;;;;;;;10.30;100.00;102334.66;5007003;28;20445;-48
2021/12/16 15:50:52;;;;;;;1.03;1.03;;;;;;;10.24;100.00;102331.94;5003336;28;20543;-48